DAL1763 KSAN-CYVR
Flight info
| Callsign | DAL1763 |
|---|---|
| Flight time | N/A |
| Altitude | 36000 |
| Route | PADRZ2 IKAYE DCT TESEA DCT SCTRR DCT SNS J126 SAC DCT LMT DCT SEA DCT PAE GRIZZ9 |
| Aircraft | A320/M-SDE3FGHIRWY/LB1 |
Departure
| Time | 2026-04-30 21:52 |
|---|---|
| Airport | San Diego International Airport (KSAN) |
Arrival
| Time | N/A |
|---|---|
| Airport | Vancouver International Airport (CYVR) |
| Time | Latitude | Longitude | Altitude | Speed | Heading |
|---|---|---|---|---|---|
| 2026-04-30 21:02 | 32.73225 | -117.20235 | 21 ft | 0 kts | 194° |
| 2026-04-30 21:38 | 32.73226 | -117.20235 | 21 ft | 1 kts | 194° |
| 2026-04-30 21:38 | 32.73247 | -117.20230 | 21 ft | 3 kts | 179° |
| 2026-04-30 21:38 | 32.73269 | -117.20234 | 22 ft | 3 kts | 149° |
| 2026-04-30 21:39 | 32.73283 | -117.20251 | 22 ft | 3 kts | 101° |
| 2026-04-30 21:39 | 32.73281 | -117.20272 | 22 ft | 1 kts | 51° |
| 2026-04-30 21:42 | 32.73290 | -117.20264 | 23 ft | 3 kts | 32° |
| 2026-04-30 21:42 | 32.73311 | -117.20259 | 21 ft | 4 kts | 4° |
| 2026-04-30 21:42 | 32.73341 | -117.20266 | 21 ft | 4 kts | 344° |
| 2026-04-30 21:42 | 32.73366 | -117.20275 | 21 ft | 3 kts | 342° |
| 2026-04-30 21:43 | 32.73397 | -117.20275 | 21 ft | 6 kts | 9° |
| 2026-04-30 21:43 | 32.73426 | -117.20266 | 21 ft | 0 kts | 15° |
| 2026-04-30 21:44 | 32.73442 | -117.20261 | 21 ft | 7 kts | 15° |
| 2026-04-30 21:44 | 32.73487 | -117.20246 | 21 ft | 7 kts | 15° |
| 2026-04-30 21:45 | 32.73528 | -117.20227 | 24 ft | 9 kts | 32° |
| 2026-04-30 21:45 | 32.73543 | -117.20156 | 23 ft | 9 kts | 102° |
| 2026-04-30 21:45 | 32.73523 | -117.20072 | 23 ft | 16 kts | 107° |
| 2026-04-30 21:45 | 32.73484 | -117.19912 | 24 ft | 20 kts | 106° |
| 2026-04-30 21:46 | 32.73448 | -117.19766 | 24 ft | 18 kts | 106° |
| 2026-04-30 21:46 | 32.73413 | -117.19623 | 24 ft | 20 kts | 106° |
| 2026-04-30 21:46 | 32.73377 | -117.19471 | 23 ft | 18 kts | 106° |
| 2026-04-30 21:46 | 32.73343 | -117.19331 | 21 ft | 18 kts | 106° |
| 2026-04-30 21:47 | 32.73310 | -117.19195 | 21 ft | 16 kts | 106° |
| 2026-04-30 21:47 | 32.73282 | -117.19082 | 24 ft | 14 kts | 106° |
| 2026-04-30 21:47 | 32.73254 | -117.18968 | 23 ft | 14 kts | 106° |
| 2026-04-30 21:47 | 32.73226 | -117.18850 | 25 ft | 17 kts | 106° |
| 2026-04-30 21:48 | 32.73184 | -117.18676 | 27 ft | 24 kts | 106° |
| 2026-04-30 21:48 | 32.73135 | -117.18476 | 22 ft | 26 kts | 106° |
| 2026-04-30 21:48 | 32.73086 | -117.18273 | 24 ft | 26 kts | 106° |
| 2026-04-30 21:48 | 32.73040 | -117.18087 | 20 ft | 18 kts | 105° |
| 2026-04-30 21:49 | 32.73006 | -117.17944 | 20 ft | 18 kts | 105° |
| 2026-04-30 21:49 | 32.72976 | -117.17820 | 18 ft | 8 kts | 106° |
| 2026-04-30 21:49 | 32.72962 | -117.17761 | 18 ft | 4 kts | 106° |
| 2026-04-30 21:49 | 32.72959 | -117.17748 | 18 ft | 1 kts | 105° |
| 2026-04-30 21:50 | 32.72959 | -117.17747 | 18 ft | 0 kts | 105° |
| 2026-04-30 21:50 | 32.72955 | -117.17731 | 20 ft | 6 kts | 105° |
| 2026-04-30 21:50 | 32.72951 | -117.17674 | 19 ft | 6 kts | 82° |
| 2026-04-30 21:50 | 32.72959 | -117.17645 | 22 ft | 2 kts | 71° |
| 2026-04-30 21:51 | 32.72968 | -117.17614 | 21 ft | 4 kts | 70° |
| 2026-04-30 21:51 | 32.72990 | -117.17586 | 23 ft | 7 kts | 27° |
| 2026-04-30 21:51 | 32.73034 | -117.17634 | 20 ft | 11 kts | 280° |
| 2026-04-30 21:51 | 32.73053 | -117.17711 | 20 ft | 14 kts | 287° |
| 2026-04-30 21:52 | 32.73154 | -117.18123 | 22 ft | 93 kts | 285° |
| 2026-04-30 21:52 | 32.73405 | -117.19142 | 21 ft | 161 kts | 288° |
| 2026-04-30 21:52 | 32.73769 | -117.20503 | 636 ft | 172 kts | 287° |
| 2026-04-30 21:52 | 32.74326 | -117.21745 | 1644 ft | 169 kts | 304° |
| 2026-04-30 21:53 | 32.74973 | -117.22851 | 2449 ft | 163 kts | 302° |
| 2026-04-30 21:53 | 32.75630 | -117.24046 | 2761 ft | 183 kts | 302° |
| 2026-04-30 21:53 | 32.76372 | -117.25392 | 3001 ft | 207 kts | 303° |
| 2026-04-30 21:53 | 32.77196 | -117.26883 | 3301 ft | 227 kts | 304° |
| 2026-04-30 21:54 | 32.78109 | -117.28530 | 3626 ft | 250 kts | 304° |
| 2026-04-30 21:54 | 32.79087 | -117.30295 | 4218 ft | 260 kts | 304° |
| 2026-04-30 21:54 | 32.80107 | -117.32112 | 4922 ft | 268 kts | 307° |
| 2026-04-30 21:54 | 32.81219 | -117.33917 | 5639 ft | 273 kts | 309° |
| 2026-04-30 21:55 | 32.82388 | -117.35724 | 6380 ft | 278 kts | 310° |
| 2026-04-30 21:55 | 32.83589 | -117.37550 | 7073 ft | 282 kts | 310° |
| 2026-04-30 21:55 | 32.84807 | -117.39402 | 7791 ft | 286 kts | 310° |
| 2026-04-30 21:55 | 32.86037 | -117.41281 | 8519 ft | 290 kts | 310° |
| 2026-04-30 21:56 | 32.87277 | -117.43187 | 9238 ft | 293 kts | 310° |
| 2026-04-30 21:56 | 32.88529 | -117.45122 | 9944 ft | 297 kts | 310° |
| 2026-04-30 21:56 | 32.89815 | -117.47111 | 10318 ft | 313 kts | 310° |
| 2026-04-30 21:56 | 32.91193 | -117.49242 | 10471 ft | 336 kts | 310° |
| 2026-04-30 21:57 | 32.92642 | -117.51487 | 10589 ft | 358 kts | 309° |
| 2026-04-30 21:57 | 32.94214 | -117.53930 | 10886 ft | 372 kts | 309° |
| 2026-04-30 21:57 | 32.95769 | -117.56359 | 11470 ft | 376 kts | 309° |
| 2026-04-30 21:57 | 32.97357 | -117.58842 | 12127 ft | 378 kts | 309° |
| 2026-04-30 21:58 | 32.98952 | -117.61336 | 12800 ft | 379 kts | 309° |
| 2026-04-30 21:58 | 33.00553 | -117.63839 | 13470 ft | 381 kts | 309° |
| 2026-04-30 21:58 | 33.02161 | -117.66353 | 14079 ft | 382 kts | 309° |
| 2026-04-30 21:58 | 33.03775 | -117.68882 | 14627 ft | 385 kts | 309° |
| 2026-04-30 21:59 | 33.05400 | -117.71431 | 15169 ft | 387 kts | 310° |
| 2026-04-30 21:59 | 33.07217 | -117.73803 | 15681 ft | 388 kts | 320° |
| 2026-04-30 21:59 | 33.09270 | -117.75901 | 16220 ft | 390 kts | 322° |
| 2026-04-30 22:00 | 33.13435 | -117.80119 | 17288 ft | 396 kts | 322° |
| 2026-04-30 22:00 | 33.17656 | -117.84416 | 18316 ft | 401 kts | 322° |
| 2026-04-30 22:00 | 33.19775 | -117.86606 | 18746 ft | 404 kts | 321° |
| 2026-04-30 22:01 | 33.21841 | -117.88903 | 19194 ft | 407 kts | 319° |
| 2026-04-30 22:01 | 33.23860 | -117.91290 | 19631 ft | 410 kts | 318° |
| 2026-04-30 22:01 | 33.25858 | -117.93727 | 20048 ft | 412 kts | 317° |
| 2026-04-30 22:01 | 33.27861 | -117.96191 | 20461 ft | 414 kts | 317° |
| 2026-04-30 22:02 | 33.29878 | -117.98662 | 20864 ft | 416 kts | 317° |
| 2026-04-30 22:02 | 33.31913 | -118.01137 | 21257 ft | 418 kts | 318° |
| 2026-04-30 22:02 | 33.33966 | -118.03614 | 21638 ft | 420 kts | 318° |
| 2026-04-30 22:02 | 33.36038 | -118.06094 | 22012 ft | 422 kts | 318° |
| 2026-04-30 22:03 | 33.38125 | -118.08576 | 22382 ft | 424 kts | 318° |
| 2026-04-30 22:03 | 33.40221 | -118.11064 | 22746 ft | 425 kts | 318° |
| 2026-04-30 22:03 | 33.42323 | -118.13567 | 23120 ft | 427 kts | 318° |
| 2026-04-30 22:03 | 33.44402 | -118.16053 | 23461 ft | 429 kts | 317° |
| 2026-04-30 22:04 | 33.46515 | -118.18588 | 23758 ft | 431 kts | 317° |
| 2026-04-30 22:04 | 33.48632 | -118.21139 | 24052 ft | 432 kts | 317° |
| 2026-04-30 22:04 | 33.52882 | -118.26265 | 24628 ft | 434 kts | 317° |
| 2026-04-30 22:05 | 33.55015 | -118.28838 | 24906 ft | 436 kts | 317° |
| 2026-04-30 22:05 | 33.57153 | -118.31412 | 25172 ft | 436 kts | 317° |
| 2026-04-30 22:05 | 33.59298 | -118.33994 | 25442 ft | 437 kts | 317° |
| 2026-04-30 22:05 | 33.61446 | -118.36585 | 25691 ft | 439 kts | 317° |
| 2026-04-30 22:06 | 33.63596 | -118.39185 | 25937 ft | 439 kts | 317° |
| 2026-04-30 22:06 | 33.67908 | -118.44405 | 26413 ft | 441 kts | 316° |
| 2026-04-30 22:06 | 33.70070 | -118.47025 | 26636 ft | 442 kts | 316° |
| 2026-04-30 22:07 | 33.72235 | -118.49652 | 26850 ft | 443 kts | 316° |
| 2026-04-30 22:07 | 33.74408 | -118.52285 | 27046 ft | 444 kts | 316° |
| 2026-04-30 22:07 | 33.76586 | -118.54926 | 27246 ft | 445 kts | 316° |
| 2026-04-30 22:07 | 33.78766 | -118.57571 | 27496 ft | 445 kts | 316° |
| 2026-04-30 22:08 | 33.80938 | -118.60211 | 27785 ft | 443 kts | 316° |
| 2026-04-30 22:08 | 33.83103 | -118.62845 | 28078 ft | 442 kts | 316° |
| 2026-04-30 22:08 | 33.85262 | -118.65470 | 28370 ft | 441 kts | 316° |
| 2026-04-30 22:08 | 33.87415 | -118.68090 | 28640 ft | 440 kts | 316° |
| 2026-04-30 22:09 | 33.89533 | -118.70675 | 28930 ft | 439 kts | 316° |
| 2026-04-30 22:09 | 33.91670 | -118.73289 | 29226 ft | 437 kts | 316° |
| 2026-04-30 22:09 | 33.93802 | -118.75894 | 29504 ft | 437 kts | 316° |
| 2026-04-30 22:09 | 33.95933 | -118.78497 | 29785 ft | 436 kts | 316° |
| 2026-04-30 22:10 | 33.98061 | -118.81093 | 30067 ft | 435 kts | 316° |
| 2026-04-30 22:10 | 34.00184 | -118.83685 | 30315 ft | 434 kts | 316° |
| 2026-04-30 22:10 | 34.02300 | -118.86270 | 30541 ft | 433 kts | 316° |
| 2026-04-30 22:10 | 34.04410 | -118.88853 | 30784 ft | 432 kts | 316° |
| 2026-04-30 22:11 | 34.08610 | -118.94011 | 31264 ft | 429 kts | 316° |
| 2026-04-30 22:11 | 34.10699 | -118.96582 | 31493 ft | 428 kts | 315° |
| 2026-04-30 22:11 | 34.12782 | -118.99146 | 31750 ft | 427 kts | 315° |
| 2026-04-30 22:12 | 34.14862 | -119.01702 | 32010 ft | 426 kts | 315° |
| 2026-04-30 22:12 | 34.16951 | -119.04232 | 32266 ft | 425 kts | 316° |
| 2026-04-30 22:12 | 34.19052 | -119.06737 | 32518 ft | 424 kts | 316° |
| 2026-04-30 22:12 | 34.21157 | -119.09225 | 32765 ft | 423 kts | 316° |
| 2026-04-30 22:13 | 34.23257 | -119.11704 | 33011 ft | 422 kts | 316° |
| 2026-04-30 22:13 | 34.25350 | -119.14182 | 33249 ft | 421 kts | 316° |
| 2026-04-30 22:13 | 34.27435 | -119.16659 | 33496 ft | 420 kts | 316° |
| 2026-04-30 22:13 | 34.29513 | -119.19135 | 33737 ft | 419 kts | 316° |
| 2026-04-30 22:14 | 34.31583 | -119.21608 | 33973 ft | 418 kts | 316° |
| 2026-04-30 22:14 | 34.33646 | -119.24079 | 34173 ft | 417 kts | 316° |
| 2026-04-30 22:14 | 34.35702 | -119.26546 | 34350 ft | 417 kts | 315° |
| 2026-04-30 22:14 | 34.37758 | -119.29015 | 34548 ft | 416 kts | 316° |
| 2026-04-30 22:15 | 34.39810 | -119.31482 | 34744 ft | 415 kts | 315° |
| 2026-04-30 22:15 | 34.41860 | -119.33946 | 34925 ft | 415 kts | 315° |
| 2026-04-30 22:15 | 34.43910 | -119.36406 | 35103 ft | 415 kts | 315° |
| 2026-04-30 22:15 | 34.45958 | -119.38866 | 35261 ft | 414 kts | 315° |
| 2026-04-30 22:16 | 34.47975 | -119.41289 | 35441 ft | 414 kts | 315° |
| 2026-04-30 22:16 | 34.50018 | -119.43745 | 35595 ft | 414 kts | 315° |
| 2026-04-30 22:17 | 34.56137 | -119.51126 | 35959 ft | 415 kts | 315° |
| 2026-04-30 22:17 | 34.62285 | -119.58542 | 35961 ft | 415 kts | 315° |
| 2026-04-30 22:18 | 34.68422 | -119.65971 | 35949 ft | 415 kts | 315° |
| 2026-04-30 22:19 | 34.74548 | -119.73415 | 35954 ft | 415 kts | 315° |
| 2026-04-30 22:20 | 34.80673 | -119.80865 | 35968 ft | 415 kts | 315° |
| 2026-04-30 22:20 | 34.86788 | -119.88324 | 35953 ft | 415 kts | 315° |
| 2026-04-30 22:21 | 34.90864 | -119.93307 | 35960 ft | 415 kts | 315° |
| 2026-04-30 22:21 | 34.94943 | -119.98282 | 35974 ft | 415 kts | 315° |
| 2026-04-30 22:22 | 34.99015 | -120.03260 | 35973 ft | 414 kts | 315° |
| 2026-04-30 22:22 | 35.03077 | -120.08248 | 35983 ft | 414 kts | 315° |
| 2026-04-30 22:23 | 35.07133 | -120.13242 | 35963 ft | 414 kts | 315° |
| 2026-04-30 22:23 | 35.11188 | -120.18230 | 35974 ft | 415 kts | 314° |
| 2026-04-30 22:24 | 35.15259 | -120.23249 | 35961 ft | 417 kts | 314° |
| 2026-04-30 22:24 | 35.19617 | -120.27857 | 35954 ft | 419 kts | 322° |
| 2026-04-30 22:25 | 35.24329 | -120.32144 | 35963 ft | 420 kts | 322° |
| 2026-04-30 22:25 | 35.28985 | -120.36398 | 35992 ft | 421 kts | 322° |
| 2026-04-30 22:26 | 35.36011 | -120.42849 | 35973 ft | 421 kts | 322° |
| 2026-04-30 22:27 | 35.39935 | -120.46458 | 35980 ft | 421 kts | 322° |
| 2026-04-30 22:27 | 35.46965 | -120.52936 | 36022 ft | 421 kts | 322° |
| 2026-04-30 22:28 | 35.53996 | -120.59415 | 36026 ft | 421 kts | 322° |
| 2026-04-30 22:29 | 35.63533 | -120.67789 | 36042 ft | 421 kts | 323° |
| 2026-04-30 22:31 | 35.80149 | -120.82527 | 36022 ft | 420 kts | 322° |
| 2026-04-30 22:32 | 35.91982 | -120.93077 | 36006 ft | 419 kts | 322° |
| 2026-04-30 22:33 | 36.03771 | -121.03615 | 35994 ft | 420 kts | 322° |
| 2026-04-30 22:35 | 36.15595 | -121.14235 | 36018 ft | 420 kts | 322° |
| 2026-04-30 22:36 | 36.27416 | -121.24894 | 36006 ft | 420 kts | 322° |
| 2026-04-30 22:37 | 36.36864 | -121.33437 | 36036 ft | 420 kts | 322° |
| 2026-04-30 22:38 | 36.46296 | -121.41998 | 36042 ft | 420 kts | 322° |
| 2026-04-30 22:39 | 36.53347 | -121.48419 | 36069 ft | 418 kts | 321° |
| 2026-04-30 22:40 | 36.68058 | -121.59721 | 36075 ft | 424 kts | 344° |
| 2026-04-30 22:41 | 36.77011 | -121.60013 | 36068 ft | 432 kts | 356° |
| 2026-04-30 22:41 | 36.83020 | -121.59842 | 36036 ft | 432 kts | 356° |
| 2026-04-30 22:43 | 37.01047 | -121.59336 | 36054 ft | 432 kts | 355° |
| 2026-04-30 22:44 | 37.13027 | -121.58999 | 36055 ft | 432 kts | 355° |
| 2026-04-30 22:45 | 37.31056 | -121.58481 | 36044 ft | 432 kts | 356° |
| 2026-04-30 22:47 | 37.49075 | -121.57956 | 35997 ft | 432 kts | 355° |
| 2026-04-30 22:48 | 37.61079 | -121.57608 | 35976 ft | 431 kts | 355° |
| 2026-04-30 22:49 | 37.79083 | -121.57086 | 35981 ft | 431 kts | 355° |
| 2026-04-30 22:51 | 37.97078 | -121.56565 | 35988 ft | 431 kts | 355° |
| 2026-04-30 22:52 | 38.06070 | -121.56295 | 35985 ft | 431 kts | 355° |
| 2026-04-30 22:53 | 38.18048 | -121.55944 | 35985 ft | 430 kts | 355° |
| 2026-04-30 22:53 | 38.27021 | -121.55674 | 35982 ft | 430 kts | 355° |
| 2026-04-30 22:55 | 38.41921 | -121.55234 | 35982 ft | 429 kts | 355° |
| 2026-04-30 22:56 | 38.53819 | -121.55478 | 35992 ft | 426 kts | 352° |
| 2026-04-30 22:57 | 38.68633 | -121.56283 | 35977 ft | 426 kts | 352° |
| 2026-04-30 22:58 | 38.80479 | -121.56798 | 35980 ft | 425 kts | 352° |
| 2026-04-30 22:59 | 38.98206 | -121.57598 | 35983 ft | 424 kts | 352° |